<?xml version="1.0" encoding="UTF-8" standalone="no" ?>
<gpx xmlns="http://www.topografix.com/GPX/1/1" xmlns:xsi="http://www.w3.org/2001/XMLSchema-instance" xsi:schemaLocation="http://www.topografix.com/GPX/1/1 http://www.topografix.com/GPX/1/1/gpx.xsd" version="1.1" creator="VisuGPX - https://www.visugpx.com">
  <metadata>
    <name>07 - Saint-Félicien circuits en partant de l'Etape cavalière du Balayn </name>
    <desc><![CDATA[Ces itinéraires font partie de la collection de EquiLiberté : www.equiliberte.org Ils sont proposés par 07410 L'Étape Cavalière du Balayn à St Félicien. http://etapecavalieredubalayn.fr/index.php/contact-reservation/ Circuits NON ACCESSIBLE aux attelages ]]></desc>
  </metadata>
  <trk>
    <name><![CDATA[07 - St Félicien : Le tour de Rochefort en Ardèche]]></name>
    <trkseg>
      <trkpt lat="45.09389" lon="4.65209">
        <ele>619</ele>
        <time>2019-10-12T15:43:22 02:00</time>
      </trkpt>
      <trkpt lat="45.09389" lon="4.65209">
        <ele>619</ele>
        <time>2019-10-12T15:43:22 02:00</time>
      </trkpt>
      <trkpt lat="45.09335" lon="4.65233">
        <ele>619</ele>
        <time>2019-10-12T15:43:27 02:00</time>
      </trkpt>
      <trkpt lat="45.09213" lon="4.652">
        <ele>616</ele>
        <time>2019-10-12T15:43:32 02:00</time>
      </trkpt>
      <trkpt lat="45.09174" lon="4.65281">
        <ele>603</ele>
        <time>2019-10-12T15:43:37 02:00</time>
      </trkpt>
      <trkpt lat="45.09186" lon="4.65488">
        <ele>580</ele>
        <time>2019-10-12T15:43:42 02:00</time>
      </trkpt>
      <trkpt lat="45.09134" lon="4.65591">
        <ele>570</ele>
        <time>2019-10-12T15:43:47 02:00</time>
      </trkpt>
      <trkpt lat="45.09051" lon="4.65695">
        <ele>563</ele>
        <time>2019-10-12T15:43:52 02:00</time>
      </trkpt>
      <trkpt lat="45.09038" lon="4.65751">
        <ele>560</ele>
        <time>2019-10-12T15:43:57 02:00</time>
      </trkpt>
      <trkpt lat="45.09012" lon="4.65793">
        <ele>559</ele>
        <time>2019-10-12T15:44:02 02:00</time>
      </trkpt>
      <trkpt lat="45.08957" lon="4.65846">
        <ele>556</ele>
        <time>2019-10-12T15:44:07 02:00</time>
      </trkpt>
      <trkpt lat="45.08894" lon="4.65921">
        <ele>554</ele>
        <time>2019-10-12T15:44:12 02:00</time>
      </trkpt>
      <trkpt lat="45.08845" lon="4.65935">
        <ele>551</ele>
        <time>2019-10-12T15:44:17 02:00</time>
      </trkpt>
      <trkpt lat="45.08792" lon="4.6593">
        <ele>554</ele>
        <time>2019-10-12T15:44:22 02:00</time>
      </trkpt>
      <trkpt lat="45.08752" lon="4.65929">
        <ele>557</ele>
        <time>2019-10-12T15:44:27 02:00</time>
      </trkpt>
      <trkpt lat="45.08722" lon="4.65948">
        <ele>561</ele>
        <time>2019-10-12T15:44:32 02:00</time>
      </trkpt>
      <trkpt lat="45.08692" lon="4.65955">
        <ele>563</ele>
        <time>2019-10-12T15:44:37 02:00</time>
      </trkpt>
      <trkpt lat="45.08613" lon="4.65951">
        <ele>560</ele>
        <time>2019-10-12T15:44:42 02:00</time>
      </trkpt>
      <trkpt lat="45.08565" lon="4.65908">
        <ele>559</ele>
        <time>2019-10-12T15:44:47 02:00</time>
      </trkpt>
      <trkpt lat="45.08528" lon="4.65873">
        <ele>557</ele>
        <time>2019-10-12T15:44:52 02:00</time>
      </trkpt>
      <trkpt lat="45.08483" lon="4.65868">
        <ele>552</ele>
        <time>2019-10-12T15:44:57 02:00</time>
      </trkpt>
      <trkpt lat="45.08456" lon="4.65904">
        <ele>545</ele>
        <time>2019-10-12T15:45:02 02:00</time>
      </trkpt>
      <trkpt lat="45.08428" lon="4.65943">
        <ele>537</ele>
        <time>2019-10-12T15:45:07 02:00</time>
      </trkpt>
      <trkpt lat="45.0838" lon="4.65943">
        <ele>530</ele>
        <time>2019-10-12T15:45:12 02:00</time>
      </trkpt>
      <trkpt lat="45.08328" lon="4.6583">
        <ele>529</ele>
        <time>2019-10-12T15:45:17 02:00</time>
      </trkpt>
      <trkpt lat="45.08284" lon="4.6571">
        <ele>532</ele>
        <time>2019-10-12T15:45:22 02:00</time>
      </trkpt>
      <trkpt lat="45.08262" lon="4.6568">
        <ele>532</ele>
        <time>2019-10-12T15:45:27 02:00</time>
      </trkpt>
      <trkpt lat="45.08206" lon="4.65657">
        <ele>529</ele>
        <time>2019-10-12T15:45:32 02:00</time>
      </trkpt>
      <trkpt lat="45.08118" lon="4.65613">
        <ele>531</ele>
        <time>2019-10-12T15:45:37 02:00</time>
      </trkpt>
      <trkpt lat="45.08119" lon="4.65575">
        <ele>531</ele>
        <time>2019-10-12T15:45:42 02:00</time>
      </trkpt>
      <trkpt lat="45.08111" lon="4.65551">
        <ele>531</ele>
        <time>2019-10-12T15:45:47 02:00</time>
      </trkpt>
      <trkpt lat="45.08107" lon="4.65475">
        <ele>530</ele>
        <time>2019-10-12T15:45:52 02:00</time>
      </trkpt>
      <trkpt lat="45.08104" lon="4.6538">
        <ele>527</ele>
        <time>2019-10-12T15:45:57 02:00</time>
      </trkpt>
      <trkpt lat="45.08074" lon="4.65325">
        <ele>525</ele>
        <time>2019-10-12T15:46:02 02:00</time>
      </trkpt>
      <trkpt lat="45.08034" lon="4.65269">
        <ele>520</ele>
        <time>2019-10-12T15:46:07 02:00</time>
      </trkpt>
      <trkpt lat="45.07995" lon="4.6514">
        <ele>512</ele>
        <time>2019-10-12T15:46:12 02:00</time>
      </trkpt>
      <trkpt lat="45.07931" lon="4.64969">
        <ele>496</ele>
        <time>2019-10-12T15:46:17 02:00</time>
      </trkpt>
      <trkpt lat="45.07914" lon="4.64931">
        <ele>493</ele>
        <time>2019-10-12T15:46:22 02:00</time>
      </trkpt>
      <trkpt lat="45.07883" lon="4.64908">
        <ele>488</ele>
        <time>2019-10-12T15:46:27 02:00</time>
      </trkpt>
      <trkpt lat="45.07836" lon="4.64851">
        <ele>479</ele>
        <time>2019-10-12T15:46:32 02:00</time>
      </trkpt>
      <trkpt lat="45.0782" lon="4.6481">
        <ele>470</ele>
        <time>2019-10-12T15:46:37 02:00</time>
      </trkpt>
      <trkpt lat="45.07825" lon="4.64758">
        <ele>466</ele>
        <time>2019-10-12T15:46:42 02:00</time>
      </trkpt>
      <trkpt lat="45.07798" lon="4.64713">
        <ele>457</ele>
        <time>2019-10-12T15:46:47 02:00</time>
      </trkpt>
      <trkpt lat="45.07786" lon="4.64702">
        <ele>455</ele>
        <time>2019-10-12T15:46:52 02:00</time>
      </trkpt>
      <trkpt lat="45.07785" lon="4.64645">
        <ele>452</ele>
        <time>2019-10-12T15:46:57 02:00</time>
      </trkpt>
      <trkpt lat="45.07792" lon="4.64574">
        <ele>447</ele>
        <time>2019-10-12T15:47:02 02:00</time>
      </trkpt>
      <trkpt lat="45.07801" lon="4.64526">
        <ele>442</ele>
        <time>2019-10-12T15:47:07 02:00</time>
      </trkpt>
      <trkpt lat="45.07789" lon="4.64497">
        <ele>440</ele>
        <time>2019-10-12T15:47:12 02:00</time>
      </trkpt>
      <trkpt lat="45.07768" lon="4.64476">
        <ele>438</ele>
        <time>2019-10-12T15:47:17 02:00</time>
      </trkpt>
      <trkpt lat="45.07759" lon="4.64453">
        <ele>435</ele>
        <time>2019-10-12T15:47:22 02:00</time>
      </trkpt>
      <trkpt lat="45.07754" lon="4.64416">
        <ele>431</ele>
        <time>2019-10-12T15:47:27 02:00</time>
      </trkpt>
      <trkpt lat="45.07781" lon="4.64402">
        <ele>431</ele>
        <time>2019-10-12T15:47:32 02:00</time>
      </trkpt>
      <trkpt lat="45.0781" lon="4.64414">
        <ele>432</ele>
        <time>2019-10-12T15:47:37 02:00</time>
      </trkpt>
      <trkpt lat="45.07823" lon="4.64407">
        <ele>432</ele>
        <time>2019-10-12T15:47:42 02:00</time>
      </trkpt>
      <trkpt lat="45.07802" lon="4.64354">
        <ele>429</ele>
        <time>2019-10-12T15:47:47 02:00</time>
      </trkpt>
      <trkpt lat="45.07761" lon="4.64303">
        <ele>425</ele>
        <time>2019-10-12T15:47:52 02:00</time>
      </trkpt>
      <trkpt lat="45.07734" lon="4.64285">
        <ele>423</ele>
        <time>2019-10-12T15:47:57 02:00</time>
      </trkpt>
      <trkpt lat="45.07683" lon="4.64252">
        <ele>419</ele>
        <time>2019-10-12T15:48:02 02:00</time>
      </trkpt>
      <trkpt lat="45.07583" lon="4.64252">
        <ele>413</ele>
        <time>2019-10-12T15:48:07 02:00</time>
      </trkpt>
      <trkpt lat="45.07589" lon="4.64179">
        <ele>413</ele>
        <time>2019-10-12T15:48:12 02:00</time>
      </trkpt>
      <trkpt lat="45.07604" lon="4.63986">
        <ele>417</ele>
        <time>2019-10-12T15:48:17 02:00</time>
      </trkpt>
      <trkpt lat="45.07586" lon="4.63956">
        <ele>417</ele>
        <time>2019-10-12T15:48:22 02:00</time>
      </trkpt>
      <trkpt lat="45.07568" lon="4.63956">
        <ele>418</ele>
        <time>2019-10-12T15:48:27 02:00</time>
      </trkpt>
      <trkpt lat="45.07542" lon="4.63892">
        <ele>422</ele>
        <time>2019-10-12T15:48:32 02:00</time>
      </trkpt>
      <trkpt lat="45.07529" lon="4.6382">
        <ele>424</ele>
        <time>2019-10-12T15:48:37 02:00</time>
      </trkpt>
      <trkpt lat="45.07512" lon="4.63913">
        <ele>425</ele>
        <time>2019-10-12T15:48:42 02:00</time>
      </trkpt>
      <trkpt lat="45.07469" lon="4.63737">
        <ele>435</ele>
        <time>2019-10-12T15:48:47 02:00</time>
      </trkpt>
      <trkpt lat="45.07442" lon="4.63608">
        <ele>451</ele>
        <time>2019-10-12T15:48:52 02:00</time>
      </trkpt>
      <trkpt lat="45.07442" lon="4.63586">
        <ele>451</ele>
        <time>2019-10-12T15:48:57 02:00</time>
      </trkpt>
      <trkpt lat="45.07387" lon="4.63393">
        <ele>460</ele>
        <time>2019-10-12T15:49:02 02:00</time>
      </trkpt>
      <trkpt lat="45.07369" lon="4.63295">
        <ele>467</ele>
        <time>2019-10-12T15:49:07 02:00</time>
      </trkpt>
      <trkpt lat="45.074" lon="4.63146">
        <ele>461</ele>
        <time>2019-10-12T15:49:12 02:00</time>
      </trkpt>
      <trkpt lat="45.07448" lon="4.63037">
        <ele>459</ele>
        <time>2019-10-12T15:49:17 02:00</time>
      </trkpt>
      <trkpt lat="45.0746" lon="4.62999">
        <ele>462</ele>
        <time>2019-10-12T15:49:22 02:00</time>
      </trkpt>
      <trkpt lat="45.07554" lon="4.62986">
        <ele>457</ele>
        <time>2019-10-12T15:49:27 02:00</time>
      </trkpt>
      <trkpt lat="45.07593" lon="4.63016">
        <ele>450</ele>
        <time>2019-10-12T15:49:32 02:00</time>
      </trkpt>
      <trkpt lat="45.07669" lon="4.62908">
        <ele>462</ele>
        <time>2019-10-12T15:49:37 02:00</time>
      </trkpt>
      <trkpt lat="45.0763" lon="4.6287">
        <ele>468</ele>
        <time>2019-10-12T15:49:42 02:00</time>
      </trkpt>
      <trkpt lat="45.07578" lon="4.62724">
        <ele>465</ele>
        <time>2019-10-12T15:49:47 02:00</time>
      </trkpt>
      <trkpt lat="45.0757" lon="4.62689">
        <ele>463</ele>
        <time>2019-10-12T15:49:52 02:00</time>
      </trkpt>
      <trkpt lat="45.07544" lon="4.62717">
        <ele>470</ele>
        <time>2019-10-12T15:49:57 02:00</time>
      </trkpt>
      <trkpt lat="45.07505" lon="4.62704">
        <ele>477</ele>
        <time>2019-10-12T15:50:02 02:00</time>
      </trkpt>
      <trkpt lat="45.07453" lon="4.62663">
        <ele>492</ele>
        <time>2019-10-12T15:50:07 02:00</time>
      </trkpt>
      <trkpt lat="45.07435" lon="4.62575">
        <ele>501</ele>
        <time>2019-10-12T15:50:12 02:00</time>
      </trkpt>
      <trkpt lat="45.07456" lon="4.62489">
        <ele>493</ele>
        <time>2019-10-12T15:50:17 02:00</time>
      </trkpt>
      <trkpt lat="45.07493" lon="4.62406">
        <ele>477</ele>
        <time>2019-10-12T15:50:22 02:00</time>
      </trkpt>
      <trkpt lat="45.07462" lon="4.62296">
        <ele>486</ele>
        <time>2019-10-12T15:50:27 02:00</time>
      </trkpt>
      <trkpt lat="45.07447" lon="4.62264">
        <ele>491</ele>
        <time>2019-10-12T15:50:32 02:00</time>
      </trkpt>
      <trkpt lat="45.07474" lon="4.62236">
        <ele>484</ele>
        <time>2019-10-12T15:50:37 02:00</time>
      </trkpt>
      <trkpt lat="45.07493" lon="4.62196">
        <ele>485</ele>
        <time>2019-10-12T15:50:42 02:00</time>
      </trkpt>
      <trkpt lat="45.07536" lon="4.62024">
        <ele>507</ele>
        <time>2019-10-12T15:50:47 02:00</time>
      </trkpt>
      <trkpt lat="45.07572" lon="4.61917">
        <ele>519</ele>
        <time>2019-10-12T15:50:52 02:00</time>
      </trkpt>
      <trkpt lat="45.07639" lon="4.61908">
        <ele>514</ele>
        <time>2019-10-12T15:50:57 02:00</time>
      </trkpt>
      <trkpt lat="45.07699" lon="4.61951">
        <ele>499</ele>
        <time>2019-10-12T15:51:02 02:00</time>
      </trkpt>
      <trkpt lat="45.07708" lon="4.61956">
        <ele>496</ele>
        <time>2019-10-12T15:51:07 02:00</time>
      </trkpt>
      <trkpt lat="45.07744" lon="4.61873">
        <ele>493</ele>
        <time>2019-10-12T15:51:12 02:00</time>
      </trkpt>
      <trkpt lat="45.07767" lon="4.61906">
        <ele>485</ele>
        <time>2019-10-12T15:51:17 02:00</time>
      </trkpt>
      <trkpt lat="45.07775" lon="4.61981">
        <ele>473</ele>
        <time>2019-10-12T15:51:22 02:00</time>
      </trkpt>
      <trkpt lat="45.07818" lon="4.61921">
        <ele>466</ele>
        <time>2019-10-12T15:51:27 02:00</time>
      </trkpt>
      <trkpt lat="45.07815" lon="4.61767">
        <ele>467</ele>
        <time>2019-10-12T15:51:32 02:00</time>
      </trkpt>
      <trkpt lat="45.07848" lon="4.61733">
        <ele>463</ele>
        <time>2019-10-12T15:51:37 02:00</time>
      </trkpt>
      <trkpt lat="45.07854" lon="4.61668">
        <ele>469</ele>
        <time>2019-10-12T15:51:42 02:00</time>
      </trkpt>
      <trkpt lat="45.07902" lon="4.61608">
        <ele>471</ele>
        <time>2019-10-12T15:51:47 02:00</time>
      </trkpt>
      <trkpt lat="45.0783" lon="4.61509">
        <ele>494</ele>
        <time>2019-10-12T15:51:52 02:00</time>
      </trkpt>
      <trkpt lat="45.07736" lon="4.61325">
        <ele>511</ele>
        <time>2019-10-12T15:51:57 02:00</time>
      </trkpt>
      <trkpt lat="45.07709" lon="4.6127">
        <ele>514</ele>
        <time>2019-10-12T15:52:02 02:00</time>
      </trkpt>
      <trkpt lat="45.07724" lon="4.61207">
        <ele>518</ele>
        <time>2019-10-12T15:52:07 02:00</time>
      </trkpt>
      <trkpt lat="45.07732" lon="4.61148">
        <ele>524</ele>
        <time>2019-10-12T15:52:12 02:00</time>
      </trkpt>
      <trkpt lat="45.07718" lon="4.61129">
        <ele>528</ele>
        <time>2019-10-12T15:52:17 02:00</time>
      </trkpt>
      <trkpt lat="45.07654" lon="4.61174">
        <ele>527</ele>
        <time>2019-10-12T15:52:22 02:00</time>
      </trkpt>
      <trkpt lat="45.07606" lon="4.61148">
        <ele>533</ele>
        <time>2019-10-12T15:52:27 02:00</time>
      </trkpt>
      <trkpt lat="45.07613" lon="4.61138">
        <ele>534</ele>
        <time>2019-10-12T15:52:32 02:00</time>
      </trkpt>
      <trkpt lat="45.07641" lon="4.61139">
        <ele>533</ele>
        <time>2019-10-12T15:52:37 02:00</time>
      </trkpt>
      <trkpt lat="45.07688" lon="4.6106">
        <ele>541</ele>
        <time>2019-10-12T15:52:42 02:00</time>
      </trkpt>
      <trkpt lat="45.07672" lon="4.61059">
        <ele>543</ele>
        <time>2019-10-12T15:52:47 02:00</time>
      </trkpt>
      <trkpt lat="45.07673" lon="4.61032">
        <ele>547</ele>
        <time>2019-10-12T15:52:52 02:00</time>
      </trkpt>
      <trkpt lat="45.07658" lon="4.60971">
        <ele>556</ele>
        <time>2019-10-12T15:52:57 02:00</time>
      </trkpt>
      <trkpt lat="45.07527" lon="4.60728">
        <ele>589</ele>
        <time>2019-10-12T15:53:02 02:00</time>
      </trkpt>
      <trkpt lat="45.07447" lon="4.60677">
        <ele>596</ele>
        <time>2019-10-12T15:53:07 02:00</time>
      </trkpt>
      <trkpt lat="45.07366" lon="4.60642">
        <ele>600</ele>
        <time>2019-10-12T15:53:12 02:00</time>
      </trkpt>
      <trkpt lat="45.07296" lon="4.60604">
        <ele>606</ele>
        <time>2019-10-12T15:53:17 02:00</time>
      </trkpt>
      <trkpt lat="45.07258" lon="4.6058">
        <ele>610</ele>
        <time>2019-10-12T15:53:22 02:00</time>
      </trkpt>
      <trkpt lat="45.07221" lon="4.60542">
        <ele>617</ele>
        <time>2019-10-12T15:53:27 02:00</time>
      </trkpt>
      <trkpt lat="45.07198" lon="4.60622">
        <ele>611</ele>
        <time>2019-10-12T15:53:32 02:00</time>
      </trkpt>
      <trkpt lat="45.07155" lon="4.60707">
        <ele>607</ele>
        <time>2019-10-12T15:53:37 02:00</time>
      </trkpt>
      <trkpt lat="45.07104" lon="4.60776">
        <ele>608</ele>
        <time>2019-10-12T15:53:42 02:00</time>
      </trkpt>
      <trkpt lat="45.0713" lon="4.60946">
        <ele>606</ele>
        <time>2019-10-12T15:53:47 02:00</time>
      </trkpt>
      <trkpt lat="45.07133" lon="4.61034">
        <ele>607</ele>
        <time>2019-10-12T15:53:52 02:00</time>
      </trkpt>
      <trkpt lat="45.07142" lon="4.6106">
        <ele>607</ele>
        <time>2019-10-12T15:53:57 02:00</time>
      </trkpt>
      <trkpt lat="45.07155" lon="4.61071">
        <ele>603</ele>
        <time>2019-10-12T15:54:02 02:00</time>
      </trkpt>
      <trkpt lat="45.07166" lon="4.61086">
        <ele>601</ele>
        <time>2019-10-12T15:54:07 02:00</time>
      </trkpt>
      <trkpt lat="45.07155" lon="4.61108">
        <ele>605</ele>
        <time>2019-10-12T15:54:12 02:00</time>
      </trkpt>
      <trkpt lat="45.07144" lon="4.61124">
        <ele>609</ele>
        <time>2019-10-12T15:54:17 02:00</time>
      </trkpt>
      <trkpt lat="45.07127" lon="4.61123">
        <ele>614</ele>
        <time>2019-10-12T15:54:22 02:00</time>
      </trkpt>
      <trkpt lat="45.07105" lon="4.61102">
        <ele>619</ele>
        <time>2019-10-12T15:54:27 02:00</time>
      </trkpt>
      <trkpt lat="45.07072" lon="4.61068">
        <ele>629</ele>
        <time>2019-10-12T15:54:32 02:00</time>
      </trkpt>
      <trkpt lat="45.07007" lon="4.60928">
        <ele>644</ele>
        <time>2019-10-12T15:54:37 02:00</time>
      </trkpt>
      <trkpt lat="45.06999" lon="4.60956">
        <ele>649</ele>
        <time>2019-10-12T15:54:42 02:00</time>
      </trkpt>
      <trkpt lat="45.06988" lon="4.61028">
        <ele>661</ele>
        <time>2019-10-12T15:54:47 02:00</time>
      </trkpt>
      <trkpt lat="45.06965" lon="4.61097">
        <ele>678</ele>
        <time>2019-10-12T15:54:52 02:00</time>
      </trkpt>
      <trkpt lat="45.0696" lon="4.61124">
        <ele>681</ele>
        <time>2019-10-12T15:54:57 02:00</time>
      </trkpt>
      <trkpt lat="45.06909" lon="4.61008">
        <ele>698</ele>
        <time>2019-10-12T15:55:02 02:00</time>
      </trkpt>
      <trkpt lat="45.06845" lon="4.60887">
        <ele>708</ele>
        <time>2019-10-12T15:55:07 02:00</time>
      </trkpt>
      <trkpt lat="45.06817" lon="4.60866">
        <ele>712</ele>
        <time>2019-10-12T15:55:12 02:00</time>
      </trkpt>
      <trkpt lat="45.06727" lon="4.60831">
        <ele>727</ele>
        <time>2019-10-12T15:55:17 02:00</time>
      </trkpt>
      <trkpt lat="45.067" lon="4.60816">
        <ele>734</ele>
        <time>2019-10-12T15:55:22 02:00</time>
      </trkpt>
      <trkpt lat="45.06679" lon="4.60795">
        <ele>739</ele>
        <time>2019-10-12T15:55:27 02:00</time>
      </trkpt>
      <trkpt lat="45.06678" lon="4.60759">
        <ele>738</ele>
        <time>2019-10-12T15:55:32 02:00</time>
      </trkpt>
      <trkpt lat="45.06671" lon="4.60713">
        <ele>741</ele>
        <time>2019-10-12T15:55:37 02:00</time>
      </trkpt>
      <trkpt lat="45.06611" lon="4.60608">
        <ele>760</ele>
        <time>2019-10-12T15:55:42 02:00</time>
      </trkpt>
      <trkpt lat="45.06599" lon="4.60527">
        <ele>767</ele>
        <time>2019-10-12T15:55:47 02:00</time>
      </trkpt>
      <trkpt lat="45.0659" lon="4.60475">
        <ele>776</ele>
        <time>2019-10-12T15:55:52 02:00</time>
      </trkpt>
      <trkpt lat="45.06623" lon="4.60364">
        <ele>785</ele>
        <time>2019-10-12T15:55:57 02:00</time>
      </trkpt>
      <trkpt lat="45.0662" lon="4.60304">
        <ele>798</ele>
        <time>2019-10-12T15:56:02 02:00</time>
      </trkpt>
      <trkpt lat="45.0666" lon="4.60261">
        <ele>798</ele>
        <time>2019-10-12T15:56:07 02:00</time>
      </trkpt>
      <trkpt lat="45.06688" lon="4.60204">
        <ele>800</ele>
        <time>2019-10-12T15:56:12 02:00</time>
      </trkpt>
      <trkpt lat="45.06714" lon="4.60141">
        <ele>801</ele>
        <time>2019-10-12T15:56:17 02:00</time>
      </trkpt>
      <trkpt lat="45.06722" lon="4.6005">
        <ele>805</ele>
        <time>2019-10-12T15:56:22 02:00</time>
      </trkpt>
      <trkpt lat="45.06721" lon="4.59959">
        <ele>814</ele>
        <time>2019-10-12T15:56:27 02:00</time>
      </trkpt>
      <trkpt lat="45.06736" lon="4.59879">
        <ele>821</ele>
        <time>2019-10-12T15:56:32 02:00</time>
      </trkpt>
      <trkpt lat="45.0682" lon="4.59742">
        <ele>820</ele>
        <time>2019-10-12T15:56:37 02:00</time>
      </trkpt>
      <trkpt lat="45.06904" lon="4.59712">
        <ele>802</ele>
        <time>2019-10-12T15:56:42 02:00</time>
      </trkpt>
      <trkpt lat="45.06908" lon="4.5967">
        <ele>806</ele>
        <time>2019-10-12T15:56:47 02:00</time>
      </trkpt>
      <trkpt lat="45.06907" lon="4.5961">
        <ele>803</ele>
        <time>2019-10-12T15:56:52 02:00</time>
      </trkpt>
      <trkpt lat="45.06895" lon="4.59546">
        <ele>801</ele>
        <time>2019-10-12T15:56:57 02:00</time>
      </trkpt>
      <trkpt lat="45.06875" lon="4.59473">
        <ele>799</ele>
        <time>2019-10-12T15:57:02 02:00</time>
      </trkpt>
      <trkpt lat="45.06842" lon="4.59405">
        <ele>801</ele>
        <time>2019-10-12T15:57:07 02:00</time>
      </trkpt>
      <trkpt lat="45.06806" lon="4.59374">
        <ele>802</ele>
        <time>2019-10-12T15:57:12 02:00</time>
      </trkpt>
      <trkpt lat="45.06775" lon="4.59381">
        <ele>806</ele>
        <time>2019-10-12T15:57:17 02:00</time>
      </trkpt>
      <trkpt lat="45.06748" lon="4.59407">
        <ele>810</ele>
        <time>2019-10-12T15:57:22 02:00</time>
      </trkpt>
      <trkpt lat="45.06724" lon="4.59462">
        <ele>814</ele>
        <time>2019-10-12T15:57:27 02:00</time>
      </trkpt>
      <trkpt lat="45.06699" lon="4.59492">
        <ele>816</ele>
        <time>2019-10-12T15:57:32 02:00</time>
      </trkpt>
      <trkpt lat="45.06575" lon="4.59557">
        <ele>824</ele>
        <time>2019-10-12T15:57:37 02:00</time>
      </trkpt>
      <trkpt lat="45.06505" lon="4.59565">
        <ele>828</ele>
        <time>2019-10-12T15:57:42 02:00</time>
      </trkpt>
      <trkpt lat="45.06442" lon="4.59561">
        <ele>823</ele>
        <time>2019-10-12T15:57:47 02:00</time>
      </trkpt>
      <trkpt lat="45.06376" lon="4.59599">
        <ele>829</ele>
        <time>2019-10-12T15:57:52 02:00</time>
      </trkpt>
      <trkpt lat="45.06329" lon="4.596">
        <ele>828</ele>
        <time>2019-10-12T15:57:57 02:00</time>
      </trkpt>
      <trkpt lat="45.06269" lon="4.59488">
        <ele>822</ele>
        <time>2019-10-12T15:58:02 02:00</time>
      </trkpt>
      <trkpt lat="45.06193" lon="4.59664">
        <ele>851</ele>
        <time>2019-10-12T15:58:07 02:00</time>
      </trkpt>
      <trkpt lat="45.06163" lon="4.59707">
        <ele>857</ele>
        <time>2019-10-12T15:58:12 02:00</time>
      </trkpt>
      <trkpt lat="45.06138" lon="4.59711">
        <ele>861</ele>
        <time>2019-10-12T15:58:17 02:00</time>
      </trkpt>
      <trkpt lat="45.06099" lon="4.59806">
        <ele>860</ele>
        <time>2019-10-12T15:58:22 02:00</time>
      </trkpt>
      <trkpt lat="45.06096" lon="4.59823">
        <ele>858</ele>
        <time>2019-10-12T15:58:27 02:00</time>
      </trkpt>
      <trkpt lat="45.06123" lon="4.59857">
        <ele>859</ele>
        <time>2019-10-12T15:58:32 02:00</time>
      </trkpt>
      <trkpt lat="45.06114" lon="4.59904">
        <ele>854</ele>
        <time>2019-10-12T15:58:37 02:00</time>
      </trkpt>
      <trkpt lat="45.06069" lon="4.59857">
        <ele>852</ele>
        <time>2019-10-12T15:58:42 02:00</time>
      </trkpt>
      <trkpt lat="45.06017" lon="4.59883">
        <ele>842</ele>
        <time>2019-10-12T15:58:47 02:00</time>
      </trkpt>
      <trkpt lat="45.05884" lon="4.59956">
        <ele>824</ele>
        <time>2019-10-12T15:58:52 02:00</time>
      </trkpt>
      <trkpt lat="45.05844" lon="4.59969">
        <ele>824</ele>
        <time>2019-10-12T15:58:57 02:00</time>
      </trkpt>
      <trkpt lat="45.05733" lon="4.60097">
        <ele>816</ele>
        <time>2019-10-12T15:59:02 02:00</time>
      </trkpt>
      <trkpt lat="45.05614" lon="4.60205">
        <ele>804</ele>
        <time>2019-10-12T15:59:07 02:00</time>
      </trkpt>
      <trkpt lat="45.05584" lon="4.60226">
        <ele>803</ele>
        <time>2019-10-12T15:59:12 02:00</time>
      </trkpt>
      <trkpt lat="45.05429" lon="4.60364">
        <ele>815</ele>
        <time>2019-10-12T15:59:17 02:00</time>
      </trkpt>
      <trkpt lat="45.05408" lon="4.60445">
        <ele>801</ele>
        <time>2019-10-12T15:59:22 02:00</time>
      </trkpt>
      <trkpt lat="45.05279" lon="4.60523">
        <ele>796</ele>
        <time>2019-10-12T15:59:27 02:00</time>
      </trkpt>
      <trkpt lat="45.05138" lon="4.60402">
        <ele>809</ele>
        <time>2019-10-12T15:59:32 02:00</time>
      </trkpt>
      <trkpt lat="45.0512" lon="4.60402">
        <ele>810</ele>
        <time>2019-10-12T15:59:37 02:00</time>
      </trkpt>
      <trkpt lat="45.05047" lon="4.60458">
        <ele>803</ele>
        <time>2019-10-12T15:59:42 02:00</time>
      </trkpt>
      <trkpt lat="45.05008" lon="4.60479">
        <ele>807</ele>
        <time>2019-10-12T15:59:47 02:00</time>
      </trkpt>
      <trkpt lat="45.04974" lon="4.60484">
        <ele>810</ele>
        <time>2019-10-12T15:59:52 02:00</time>
      </trkpt>
      <trkpt lat="45.0495" lon="4.60484">
        <ele>812</ele>
        <time>2019-10-12T15:59:57 02:00</time>
      </trkpt>
      <trkpt lat="45.0492" lon="4.60604">
        <ele>807</ele>
        <time>2019-10-12T16:00:02 02:00</time>
      </trkpt>
      <trkpt lat="45.04892" lon="4.60771">
        <ele>801</ele>
        <time>2019-10-12T16:00:07 02:00</time>
      </trkpt>
      <trkpt lat="45.04941" lon="4.60913">
        <ele>786</ele>
        <time>2019-10-12T16:00:12 02:00</time>
      </trkpt>
      <trkpt lat="45.04959" lon="4.60823">
        <ele>776</ele>
        <time>2019-10-12T16:00:17 02:00</time>
      </trkpt>
      <trkpt lat="45.04977" lon="4.60836">
        <ele>770</ele>
        <time>2019-10-12T16:00:22 02:00</time>
      </trkpt>
      <trkpt lat="45.05023" lon="4.60741">
        <ele>755</ele>
        <time>2019-10-12T16:00:27 02:00</time>
      </trkpt>
      <trkpt lat="45.05059" lon="4.60784">
        <ele>746</ele>
        <time>2019-10-12T16:00:32 02:00</time>
      </trkpt>
      <trkpt lat="45.05102" lon="4.60741">
        <ele>740</ele>
        <time>2019-10-12T16:00:37 02:00</time>
      </trkpt>
      <trkpt lat="45.05147" lon="4.60737">
        <ele>736</ele>
        <time>2019-10-12T16:00:42 02:00</time>
      </trkpt>
      <trkpt lat="45.0519" lon="4.60752">
        <ele>734</ele>
        <time>2019-10-12T16:00:47 02:00</time>
      </trkpt>
      <trkpt lat="45.0522" lon="4.6078">
        <ele>730</ele>
        <time>2019-10-12T16:00:52 02:00</time>
      </trkpt>
      <trkpt lat="45.05314" lon="4.60827">
        <ele>720</ele>
        <time>2019-10-12T16:00:57 02:00</time>
      </trkpt>
      <trkpt lat="45.05226" lon="4.60836">
        <ele>716</ele>
        <time>2019-10-12T16:01:02 02:00</time>
      </trkpt>
      <trkpt lat="45.05196" lon="4.60913">
        <ele>709</ele>
        <time>2019-10-12T16:01:07 02:00</time>
      </trkpt>
      <trkpt lat="45.05196" lon="4.60943">
        <ele>707</ele>
        <time>2019-10-12T16:01:12 02:00</time>
      </trkpt>
      <trkpt lat="45.05155" lon="4.60996">
        <ele>715</ele>
        <time>2019-10-12T16:01:17 02:00</time>
      </trkpt>
      <trkpt lat="45.05174" lon="4.61075">
        <ele>704</ele>
        <time>2019-10-12T16:01:22 02:00</time>
      </trkpt>
      <trkpt lat="45.05187" lon="4.61166">
        <ele>701</ele>
        <time>2019-10-12T16:01:27 02:00</time>
      </trkpt>
      <trkpt lat="45.05205" lon="4.61093">
        <ele>694</ele>
        <time>2019-10-12T16:01:32 02:00</time>
      </trkpt>
      <trkpt lat="45.05268" lon="4.61157">
        <ele>676</ele>
        <time>2019-10-12T16:01:37 02:00</time>
      </trkpt>
      <trkpt lat="45.05305" lon="4.612">
        <ele>671</ele>
        <time>2019-10-12T16:01:42 02:00</time>
      </trkpt>
      <trkpt lat="45.05359" lon="4.61324">
        <ele>658</ele>
        <time>2019-10-12T16:01:47 02:00</time>
      </trkpt>
      <trkpt lat="45.05408" lon="4.61475">
        <ele>643</ele>
        <time>2019-10-12T16:01:52 02:00</time>
      </trkpt>
      <trkpt lat="45.05417" lon="4.61518">
        <ele>639</ele>
        <time>2019-10-12T16:01:57 02:00</time>
      </trkpt>
      <trkpt lat="45.0539" lon="4.61681">
        <ele>652</ele>
        <time>2019-10-12T16:02:02 02:00</time>
      </trkpt>
      <trkpt lat="45.0545" lon="4.61801">
        <ele>630</ele>
        <time>2019-10-12T16:02:07 02:00</time>
      </trkpt>
      <trkpt lat="45.05475" lon="4.61823">
        <ele>621</ele>
        <time>2019-10-12T16:02:12 02:00</time>
      </trkpt>
      <trkpt lat="45.05484" lon="4.6181">
        <ele>617</ele>
        <time>2019-10-12T16:02:17 02:00</time>
      </trkpt>
      <trkpt lat="45.05493" lon="4.61827">
        <ele>614</ele>
        <time>2019-10-12T16:02:22 02:00</time>
      </trkpt>
      <trkpt lat="45.05475" lon="4.61904">
        <ele>617</ele>
        <time>2019-10-12T16:02:27 02:00</time>
      </trkpt>
      <trkpt lat="45.05511" lon="4.6199">
        <ele>610</ele>
        <time>2019-10-12T16:02:32 02:00</time>
      </trkpt>
      <trkpt lat="45.0562" lon="4.6202">
        <ele>592</ele>
        <time>2019-10-12T16:02:37 02:00</time>
      </trkpt>
      <trkpt lat="45.05663" lon="4.6214">
        <ele>588</ele>
        <time>2019-10-12T16:02:42 02:00</time>
      </trkpt>
      <trkpt lat="45.05644" lon="4.62235">
        <ele>591</ele>
        <time>2019-10-12T16:02:47 02:00</time>
      </trkpt>
      <trkpt lat="45.05629" lon="4.62381">
        <ele>581</ele>
        <time>2019-10-12T16:02:52 02:00</time>
      </trkpt>
      <trkpt lat="45.0562" lon="4.62415">
        <ele>580</ele>
        <time>2019-10-12T16:02:57 02:00</time>
      </trkpt>
      <trkpt lat="45.05705" lon="4.62569">
        <ele>564</ele>
        <time>2019-10-12T16:03:02 02:00</time>
      </trkpt>
      <trkpt lat="45.05776" lon="4.62669">
        <ele>556</ele>
        <time>2019-10-12T16:03:07 02:00</time>
      </trkpt>
      <trkpt lat="45.05831" lon="4.62776">
        <ele>563</ele>
        <time>2019-10-12T16:03:12 02:00</time>
      </trkpt>
      <trkpt lat="45.05916" lon="4.62875">
        <ele>567</ele>
        <time>2019-10-12T16:03:17 02:00</time>
      </trkpt>
      <trkpt lat="45.0597" lon="4.62969">
        <ele>565</ele>
        <time>2019-10-12T16:03:22 02:00</time>
      </trkpt>
      <trkpt lat="45.06019" lon="4.63081">
        <ele>562</ele>
        <time>2019-10-12T16:03:27 02:00</time>
      </trkpt>
      <trkpt lat="45.06072" lon="4.63137">
        <ele>550</ele>
        <time>2019-10-12T16:03:32 02:00</time>
      </trkpt>
      <trkpt lat="45.0611" lon="4.63156">
        <ele>542</ele>
        <time>2019-10-12T16:03:37 02:00</time>
      </trkpt>
      <trkpt lat="45.06129" lon="4.63212">
        <ele>546</ele>
        <time>2019-10-12T16:03:42 02:00</time>
      </trkpt>
      <trkpt lat="45.0622" lon="4.63282">
        <ele>534</ele>
        <time>2019-10-12T16:03:47 02:00</time>
      </trkpt>
      <trkpt lat="45.06295" lon="4.63338">
        <ele>531</ele>
        <time>2019-10-12T16:03:52 02:00</time>
      </trkpt>
      <trkpt lat="45.06354" lon="4.63424">
        <ele>530</ele>
        <time>2019-10-12T16:03:57 02:00</time>
      </trkpt>
      <trkpt lat="45.06429" lon="4.63529">
        <ele>533</ele>
        <time>2019-10-12T16:04:02 02:00</time>
      </trkpt>
      <trkpt lat="45.06495" lon="4.63626">
        <ele>538</ele>
        <time>2019-10-12T16:04:07 02:00</time>
      </trkpt>
      <trkpt lat="45.0651" lon="4.63699">
        <ele>546</ele>
        <time>2019-10-12T16:04:12 02:00</time>
      </trkpt>
      <trkpt lat="45.06578" lon="4.63746">
        <ele>532</ele>
        <time>2019-10-12T16:04:17 02:00</time>
      </trkpt>
      <trkpt lat="45.06604" lon="4.63774">
        <ele>528</ele>
        <time>2019-10-12T16:04:22 02:00</time>
      </trkpt>
      <trkpt lat="45.06666" lon="4.63748">
        <ele>507</ele>
        <time>2019-10-12T16:04:27 02:00</time>
      </trkpt>
      <trkpt lat="45.06713" lon="4.63727">
        <ele>497</ele>
        <time>2019-10-12T16:04:32 02:00</time>
      </trkpt>
      <trkpt lat="45.0673" lon="4.63682">
        <ele>490</ele>
        <time>2019-10-12T16:04:37 02:00</time>
      </trkpt>
      <trkpt lat="45.06704" lon="4.63637">
        <ele>494</ele>
        <time>2019-10-12T16:04:42 02:00</time>
      </trkpt>
      <trkpt lat="45.06717" lon="4.63598">
        <ele>489</ele>
        <time>2019-10-12T16:04:47 02:00</time>
      </trkpt>
      <trkpt lat="45.06733" lon="4.63557">
        <ele>483</ele>
        <time>2019-10-12T16:04:52 02:00</time>
      </trkpt>
      <trkpt lat="45.06754" lon="4.63602">
        <ele>479</ele>
        <time>2019-10-12T16:04:57 02:00</time>
      </trkpt>
      <trkpt lat="45.06789" lon="4.63649">
        <ele>473</ele>
        <time>2019-10-12T16:05:02 02:00</time>
      </trkpt>
      <trkpt lat="45.06833" lon="4.63675">
        <ele>464</ele>
        <time>2019-10-12T16:05:07 02:00</time>
      </trkpt>
      <trkpt lat="45.06872" lon="4.63731">
        <ele>461</ele>
        <time>2019-10-12T16:05:12 02:00</time>
      </trkpt>
      <trkpt lat="45.0693" lon="4.63763">
        <ele>452</ele>
        <time>2019-10-12T16:05:17 02:00</time>
      </trkpt>
      <trkpt lat="45.06951" lon="4.63791">
        <ele>452</ele>
        <time>2019-10-12T16:05:22 02:00</time>
      </trkpt>
      <trkpt lat="45.06955" lon="4.63819">
        <ele>454</ele>
        <time>2019-10-12T16:05:27 02:00</time>
      </trkpt>
      <trkpt lat="45.07025" lon="4.63838">
        <ele>446</ele>
        <time>2019-10-12T16:05:32 02:00</time>
      </trkpt>
      <trkpt lat="45.07081" lon="4.63875">
        <ele>446</ele>
        <time>2019-10-12T16:05:37 02:00</time>
      </trkpt>
      <trkpt lat="45.07114" lon="4.63905">
        <ele>446</ele>
        <time>2019-10-12T16:05:42 02:00</time>
      </trkpt>
      <trkpt lat="45.07193" lon="4.63948">
        <ele>443</ele>
        <time>2019-10-12T16:05:47 02:00</time>
      </trkpt>
      <trkpt lat="45.07268" lon="4.64008">
        <ele>440</ele>
        <time>2019-10-12T16:05:52 02:00</time>
      </trkpt>
      <trkpt lat="45.07293" lon="4.6401">
        <ele>438</ele>
        <time>2019-10-12T16:05:57 02:00</time>
      </trkpt>
      <trkpt lat="45.07378" lon="4.64025">
        <ele>433</ele>
        <time>2019-10-12T16:06:02 02:00</time>
      </trkpt>
      <trkpt lat="45.07431" lon="4.64055">
        <ele>431</ele>
        <time>2019-10-12T16:06:07 02:00</time>
      </trkpt>
      <trkpt lat="45.0746" lon="4.64106">
        <ele>430</ele>
        <time>2019-10-12T16:06:12 02:00</time>
      </trkpt>
      <trkpt lat="45.0748" lon="4.64141">
        <ele>426</ele>
        <time>2019-10-12T16:06:17 02:00</time>
      </trkpt>
      <trkpt lat="45.07492" lon="4.64164">
        <ele>423</ele>
        <time>2019-10-12T16:06:22 02:00</time>
      </trkpt>
      <trkpt lat="45.0749" lon="4.6416">
        <ele>423</ele>
        <time>2019-10-12T16:06:27 02:00</time>
      </trkpt>
      <trkpt lat="45.07495" lon="4.6416">
        <ele>422</ele>
        <time>2019-10-12T16:06:32 02:00</time>
      </trkpt>
      <trkpt lat="45.0751" lon="4.64197">
        <ele>420</ele>
        <time>2019-10-12T16:06:37 02:00</time>
      </trkpt>
      <trkpt lat="45.07535" lon="4.64177">
        <ele>417</ele>
        <time>2019-10-12T16:06:42 02:00</time>
      </trkpt>
      <trkpt lat="45.07566" lon="4.64136">
        <ele>415</ele>
        <time>2019-10-12T16:06:47 02:00</time>
      </trkpt>
      <trkpt lat="45.07581" lon="4.64037">
        <ele>416</ele>
        <time>2019-10-12T16:06:52 02:00</time>
      </trkpt>
      <trkpt lat="45.07578" lon="4.63943">
        <ele>418</ele>
        <time>2019-10-12T16:06:57 02:00</time>
      </trkpt>
      <trkpt lat="45.07645" lon="4.6399">
        <ele>417</ele>
        <time>2019-10-12T16:07:02 02:00</time>
      </trkpt>
      <trkpt lat="45.07651" lon="4.64097">
        <ele>416</ele>
        <time>2019-10-12T16:07:07 02:00</time>
      </trkpt>
      <trkpt lat="45.07666" lon="4.64136">
        <ele>415</ele>
        <time>2019-10-12T16:07:12 02:00</time>
      </trkpt>
      <trkpt lat="45.07672" lon="4.64252">
        <ele>418</ele>
        <time>2019-10-12T16:07:17 02:00</time>
      </trkpt>
      <trkpt lat="45.07751" lon="4.64273">
        <ele>425</ele>
        <time>2019-10-12T16:07:22 02:00</time>
      </trkpt>
      <trkpt lat="45.07822" lon="4.64281">
        <ele>433</ele>
        <time>2019-10-12T16:07:27 02:00</time>
      </trkpt>
      <trkpt lat="45.07806" lon="4.64232">
        <ele>434</ele>
        <time>2019-10-12T16:07:32 02:00</time>
      </trkpt>
      <trkpt lat="45.07802" lon="4.64175">
        <ele>439</ele>
        <time>2019-10-12T16:07:37 02:00</time>
      </trkpt>
      <trkpt lat="45.07799" lon="4.64046">
        <ele>449</ele>
        <time>2019-10-12T16:07:42 02:00</time>
      </trkpt>
      <trkpt lat="45.07809" lon="4.63907">
        <ele>456</ele>
        <time>2019-10-12T16:07:47 02:00</time>
      </trkpt>
      <trkpt lat="45.07811" lon="4.6388">
        <ele>456</ele>
        <time>2019-10-12T16:07:52 02:00</time>
      </trkpt>
      <trkpt lat="45.07885" lon="4.63927">
        <ele>469</ele>
        <time>2019-10-12T16:07:57 02:00</time>
      </trkpt>
      <trkpt lat="45.07948" lon="4.63981">
        <ele>475</ele>
        <time>2019-10-12T16:08:02 02:00</time>
      </trkpt>
      <trkpt lat="45.0799" lon="4.64001">
        <ele>479</ele>
        <time>2019-10-12T16:08:07 02:00</time>
      </trkpt>
      <trkpt lat="45.08001" lon="4.64032">
        <ele>478</ele>
        <time>2019-10-12T16:08:12 02:00</time>
      </trkpt>
      <trkpt lat="45.08021" lon="4.64054">
        <ele>478</ele>
        <time>2019-10-12T16:08:17 02:00</time>
      </trkpt>
      <trkpt lat="45.0804" lon="4.64049">
        <ele>480</ele>
        <time>2019-10-12T16:08:22 02:00</time>
      </trkpt>
      <trkpt lat="45.08056" lon="4.64022">
        <ele>482</ele>
        <time>2019-10-12T16:08:27 02:00</time>
      </trkpt>
      <trkpt lat="45.08069" lon="4.64016">
        <ele>483</ele>
        <time>2019-10-12T16:08:32 02:00</time>
      </trkpt>
      <trkpt lat="45.081" lon="4.64022">
        <ele>486</ele>
        <time>2019-10-12T16:08:37 02:00</time>
      </trkpt>
      <trkpt lat="45.08128" lon="4.64015">
        <ele>490</ele>
        <time>2019-10-12T16:08:42 02:00</time>
      </trkpt>
      <trkpt lat="45.0815" lon="4.63942">
        <ele>490</ele>
        <time>2019-10-12T16:08:47 02:00</time>
      </trkpt>
      <trkpt lat="45.08166" lon="4.6398">
        <ele>494</ele>
        <time>2019-10-12T16:08:52 02:00</time>
      </trkpt>
      <trkpt lat="45.08168" lon="4.64025">
        <ele>495</ele>
        <time>2019-10-12T16:08:57 02:00</time>
      </trkpt>
      <trkpt lat="45.08208" lon="4.64043">
        <ele>500</ele>
        <time>2019-10-12T16:09:02 02:00</time>
      </trkpt>
      <trkpt lat="45.08219" lon="4.64118">
        <ele>505</ele>
        <time>2019-10-12T16:09:07 02:00</time>
      </trkpt>
      <trkpt lat="45.08233" lon="4.64187">
        <ele>508</ele>
        <time>2019-10-12T16:09:12 02:00</time>
      </trkpt>
      <trkpt lat="45.08284" lon="4.6411">
        <ele>517</ele>
        <time>2019-10-12T16:09:17 02:00</time>
      </trkpt>
      <trkpt lat="45.08324" lon="4.64162">
        <ele>527</ele>
        <time>2019-10-12T16:09:22 02:00</time>
      </trkpt>
      <trkpt lat="45.08349" lon="4.64127">
        <ele>528</ele>
        <time>2019-10-12T16:09:27 02:00</time>
      </trkpt>
      <trkpt lat="45.08408" lon="4.64103">
        <ele>535</ele>
        <time>2019-10-12T16:09:32 02:00</time>
      </trkpt>
      <trkpt lat="45.08404" lon="4.64122">
        <ele>536</ele>
        <time>2019-10-12T16:09:37 02:00</time>
      </trkpt>
      <trkpt lat="45.08403" lon="4.64139">
        <ele>538</ele>
        <time>2019-10-12T16:09:42 02:00</time>
      </trkpt>
      <trkpt lat="45.08451" lon="4.64165">
        <ele>546</ele>
        <time>2019-10-12T16:09:47 02:00</time>
      </trkpt>
      <trkpt lat="45.08454" lon="4.64182">
        <ele>547</ele>
        <time>2019-10-12T16:09:52 02:00</time>
      </trkpt>
      <trkpt lat="45.08485" lon="4.64282">
        <ele>550</ele>
        <time>2019-10-12T16:09:57 02:00</time>
      </trkpt>
      <trkpt lat="45.08534" lon="4.64277">
        <ele>561</ele>
        <time>2019-10-12T16:10:02 02:00</time>
      </trkpt>
      <trkpt lat="45.08549" lon="4.64212">
        <ele>563</ele>
        <time>2019-10-12T16:10:07 02:00</time>
      </trkpt>
      <trkpt lat="45.08621" lon="4.64282">
        <ele>581</ele>
        <time>2019-10-12T16:10:12 02:00</time>
      </trkpt>
      <trkpt lat="45.08657" lon="4.64303">
        <ele>591</ele>
        <time>2019-10-12T16:10:17 02:00</time>
      </trkpt>
      <trkpt lat="45.08715" lon="4.64342">
        <ele>602</ele>
        <time>2019-10-12T16:10:22 02:00</time>
      </trkpt>
      <trkpt lat="45.0886" lon="4.64363">
        <ele>612</ele>
        <time>2019-10-12T16:10:27 02:00</time>
      </trkpt>
      <trkpt lat="45.08875" lon="4.64393">
        <ele>612</ele>
        <time>2019-10-12T16:10:32 02:00</time>
      </trkpt>
      <trkpt lat="45.0899" lon="4.64415">
        <ele>624</ele>
        <time>2019-10-12T16:10:37 02:00</time>
      </trkpt>
      <trkpt lat="45.09154" lon="4.64505">
        <ele>636</ele>
        <time>2019-10-12T16:10:42 02:00</time>
      </trkpt>
      <trkpt lat="45.09196" lon="4.64518">
        <ele>635</ele>
        <time>2019-10-12T16:10:47 02:00</time>
      </trkpt>
      <trkpt lat="45.09272" lon="4.64561">
        <ele>638</ele>
        <time>2019-10-12T16:10:52 02:00</time>
      </trkpt>
      <trkpt lat="45.09341" lon="4.64536">
        <ele>630</ele>
        <time>2019-10-12T16:10:57 02:00</time>
      </trkpt>
      <trkpt lat="45.09369" lon="4.64667">
        <ele>641</ele>
        <time>2019-10-12T16:11:02 02:00</time>
      </trkpt>
      <trkpt lat="45.09381" lon="4.64803">
        <ele>644</ele>
        <time>2019-10-12T16:11:07 02:00</time>
      </trkpt>
      <trkpt lat="45.09375" lon="4.64964">
        <ele>637</ele>
        <time>2019-10-12T16:11:12 02:00</time>
      </trkpt>
      <trkpt lat="45.09417" lon="4.64972">
        <ele>634</ele>
        <time>2019-10-12T16:11:17 02:00</time>
      </trkpt>
      <trkpt lat="45.0943" lon="4.6505">
        <ele>627</ele>
        <time>2019-10-12T16:11:22 02:00</time>
      </trkpt>
      <trkpt lat="45.09414" lon="4.65067">
        <ele>626</ele>
        <time>2019-10-12T16:11:27 02:00</time>
      </trkpt>
      <trkpt lat="45.09402" lon="4.65076">
        <ele>626</ele>
        <time>2019-10-12T16:11:32 02:00</time>
      </trkpt>
      <trkpt lat="45.09399" lon="4.65191">
        <ele>620</ele>
        <time>2019-10-12T16:11:37 02:00</time>
      </trkpt>
    </trkseg>
  </trk>
</gpx>